sensor_id;sensor_type;location;lat;lon;timestamp;P1;durP1;ratioP1;P2;durP2;ratioP2
41921;SDS011;27609;51.002;5.354;2023-12-14T00:00:27;55.75;;;20.02;;
41921;SDS011;27609;51.002;5.354;2023-12-14T00:02:53;52.67;;;20.33;;
41921;SDS011;27609;51.002;5.354;2023-12-14T00:05:19;58.22;;;20.30;;
41921;SDS011;27609;51.002;5.354;2023-12-14T00:07:44;58.70;;;20.48;;
41921;SDS011;27609;51.002;5.354;2023-12-14T00:10:10;51.72;;;20.95;;
41921;SDS011;27609;51.002;5.354;2023-12-14T00:12:37;61.78;;;21.90;;
41921;SDS011;27609;51.002;5.354;2023-12-14T00:15:03;61.83;;;21.30;;
41921;SDS011;27609;51.002;5.354;2023-12-14T00:17:29;58.63;;;21.17;;
41921;SDS011;27609;51.002;5.354;2023-12-14T00:19:55;63.40;;;22.40;;
41921;SDS011;27609;51.002;5.354;2023-12-14T00:22:20;66.28;;;22.58;;
41921;SDS011;27609;51.002;5.354;2023-12-14T00:24:46;60.35;;;22.17;;
41921;SDS011;27609;51.002;5.354;2023-12-14T00:27:13;68.93;;;24.42;;
41921;SDS011;27609;51.002;5.354;2023-12-14T00:29:39;61.80;;;22.33;;
41921;SDS011;27609;51.002;5.354;2023-12-14T00:32:05;68.95;;;23.50;;
41921;SDS011;27609;51.002;5.354;2023-12-14T00:34:31;71.93;;;23.38;;
41921;SDS011;27609;51.002;5.354;2023-12-14T00:36:56;69.13;;;24.42;;
41921;SDS011;27609;51.002;5.354;2023-12-14T00:39:22;70.38;;;24.42;;
41921;SDS011;27609;51.002;5.354;2023-12-14T00:41:48;62.50;;;24.35;;
41921;SDS011;27609;51.002;5.354;2023-12-14T00:44:13;68.85;;;23.27;;
41921;SDS011;27609;51.002;5.354;2023-12-14T00:46:39;64.15;;;22.45;;
41921;SDS011;27609;51.002;5.354;2023-12-14T00:49:06;62.10;;;22.90;;
41921;SDS011;27609;51.002;5.354;2023-12-14T00:51:32;65.60;;;22.95;;
41921;SDS011;27609;51.002;5.354;2023-12-14T00:53:58;68.47;;;25.08;;
41921;SDS011;27609;51.002;5.354;2023-12-14T00:56:23;64.00;;;24.48;;
41921;SDS011;27609;51.002;5.354;2023-12-14T00:58:49;65.63;;;22.95;;
41921;SDS011;27609;51.002;5.354;2023-12-14T01:01:15;64.63;;;24.25;;
41921;SDS011;27609;51.002;5.354;2023-12-14T01:03:40;65.70;;;22.73;;
41921;SDS011;27609;51.002;5.354;2023-12-14T01:06:06;72.65;;;22.67;;
41921;SDS011;27609;51.002;5.354;2023-12-14T01:08:32;58.78;;;22.88;;
41921;SDS011;27609;51.002;5.354;2023-12-14T01:10:58;64.57;;;23.60;;
41921;SDS011;27609;51.002;5.354;2023-12-14T01:13:23;53.90;;;22.33;;
41921;SDS011;27609;51.002;5.354;2023-12-14T01:15:49;59.47;;;23.17;;
41921;SDS011;27609;51.002;5.354;2023-12-14T01:18:15;59.63;;;22.40;;
41921;SDS011;27609;51.002;5.354;2023-12-14T01:20:42;56.92;;;20.95;;
41921;SDS011;27609;51.002;5.354;2023-12-14T01:23:08;60.95;;;23.38;;
41921;SDS011;27609;51.002;5.354;2023-12-14T01:25:34;60.10;;;22.80;;
41921;SDS011;27609;51.002;5.354;2023-12-14T01:28:01;68.82;;;23.70;;
41921;SDS011;27609;51.002;5.354;2023-12-14T01:30:27;61.55;;;21.92;;
41921;SDS011;27609;51.002;5.354;2023-12-14T01:32:52;62.80;;;22.10;;
41921;SDS011;27609;51.002;5.354;2023-12-14T01:35:18;51.92;;;20.35;;
41921;SDS011;27609;51.002;5.354;2023-12-14T01:37:43;64.05;;;22.42;;
41921;SDS011;27609;51.002;5.354;2023-12-14T01:40:09;63.30;;;22.10;;
41921;SDS011;27609;51.002;5.354;2023-12-14T01:42:35;56.50;;;21.92;;
41921;SDS011;27609;51.002;5.354;2023-12-14T01:45:01;64.32;;;24.17;;
41921;SDS011;27609;51.002;5.354;2023-12-14T01:47:27;59.85;;;23.58;;
41921;SDS011;27609;51.002;5.354;2023-12-14T01:49:52;58.42;;;22.45;;
41921;SDS011;27609;51.002;5.354;2023-12-14T01:52:18;59.70;;;21.90;;
41921;SDS011;27609;51.002;5.354;2023-12-14T01:54:44;57.75;;;20.98;;
41921;SDS011;27609;51.002;5.354;2023-12-14T01:57:09;53.83;;;20.08;;
41921;SDS011;27609;51.002;5.354;2023-12-14T01:59:36;59.20;;;22.73;;
41921;SDS011;27609;51.002;5.354;2023-12-14T02:02:02;52.92;;;20.88;;
41921;SDS011;27609;51.002;5.354;2023-12-14T02:04:30;52.72;;;20.00;;
41921;SDS011;27609;51.002;5.354;2023-12-14T02:06:56;52.60;;;19.63;;
41921;SDS011;27609;51.002;5.354;2023-12-14T02:09:22;48.60;;;18.80;;
41921;SDS011;27609;51.002;5.354;2023-12-14T02:11:48;42.38;;;16.55;;
41921;SDS011;27609;51.002;5.354;2023-12-14T02:14:13;34.58;;;17.20;;
41921;SDS011;27609;51.002;5.354;2023-12-14T02:16:39;32.50;;;13.48;;
41921;SDS011;27609;51.002;5.354;2023-12-14T02:19:05;33.63;;;15.23;;
41921;SDS011;27609;51.002;5.354;2023-12-14T02:21:31;33.15;;;15.10;;
41921;SDS011;27609;51.002;5.354;2023-12-14T02:23:56;29.52;;;14.85;;
41921;SDS011;27609;51.002;5.354;2023-12-14T02:26:22;26.92;;;12.25;;
41921;SDS011;27609;51.002;5.354;2023-12-14T02:28:48;26.27;;;12.77;;
41921;SDS011;27609;51.002;5.354;2023-12-14T02:31:14;24.52;;;11.95;;
41921;SDS011;27609;51.002;5.354;2023-12-14T02:33:39;27.98;;;12.75;;
41921;SDS011;27609;51.002;5.354;2023-12-14T02:36:05;28.65;;;13.35;;
41921;SDS011;27609;51.002;5.354;2023-12-14T02:38:31;25.02;;;12.40;;
41921;SDS011;27609;51.002;5.354;2023-12-14T02:40:57;23.55;;;12.32;;
41921;SDS011;27609;51.002;5.354;2023-12-14T02:43:22;24.98;;;12.95;;
41921;SDS011;27609;51.002;5.354;2023-12-14T02:45:48;25.77;;;13.32;;
41921;SDS011;27609;51.002;5.354;2023-12-14T02:48:14;25.27;;;13.35;;
41921;SDS011;27609;51.002;5.354;2023-12-14T02:50:40;29.33;;;12.65;;
41921;SDS011;27609;51.002;5.354;2023-12-14T02:53:06;29.88;;;13.20;;
41921;SDS011;27609;51.002;5.354;2023-12-14T02:55:31;27.25;;;12.52;;
41921;SDS011;27609;51.002;5.354;2023-12-14T02:57:57;28.83;;;13.90;;
41921;SDS011;27609;51.002;5.354;2023-12-14T03:00:23;32.67;;;14.65;;
41921;SDS011;27609;51.002;5.354;2023-12-14T03:02:49;31.13;;;14.57;;
41921;SDS011;27609;51.002;5.354;2023-12-14T03:05:14;32.92;;;14.57;;
41921;SDS011;27609;51.002;5.354;2023-12-14T03:07:40;30.10;;;13.10;;
41921;SDS011;27609;51.002;5.354;2023-12-14T03:10:06;40.38;;;16.83;;
41921;SDS011;27609;51.002;5.354;2023-12-14T03:12:33;35.80;;;15.40;;
41921;SDS011;27609;51.002;5.354;2023-12-14T03:14:58;41.70;;;15.43;;
41921;SDS011;27609;51.002;5.354;2023-12-14T03:17:24;39.40;;;15.68;;
41921;SDS011;27609;51.002;5.354;2023-12-14T03:19:50;40.00;;;16.13;;
41921;SDS011;27609;51.002;5.354;2023-12-14T03:22:15;39.67;;;16.23;;
41921;SDS011;27609;51.002;5.354;2023-12-14T03:24:41;33.40;;;15.15;;
41921;SDS011;27609;51.002;5.354;2023-12-14T03:27:07;37.60;;;15.77;;
41921;SDS011;27609;51.002;5.354;2023-12-14T03:29:33;34.13;;;15.55;;
41921;SDS011;27609;51.002;5.354;2023-12-14T03:31:59;33.05;;;15.23;;
41921;SDS011;27609;51.002;5.354;2023-12-14T03:34:25;35.83;;;15.75;;
41921;SDS011;27609;51.002;5.354;2023-12-14T03:36:51;43.83;;;17.92;;
41921;SDS011;27609;51.002;5.354;2023-12-14T03:39:16;37.63;;;15.88;;
41921;SDS011;27609;51.002;5.354;2023-12-14T03:41:42;37.17;;;16.00;;
41921;SDS011;27609;51.002;5.354;2023-12-14T03:44:09;34.70;;;15.98;;
41921;SDS011;27609;51.002;5.354;2023-12-14T03:46:34;36.38;;;15.93;;
41921;SDS011;27609;51.002;5.354;2023-12-14T03:49:00;39.22;;;15.85;;
41921;SDS011;27609;51.002;5.354;2023-12-14T03:51:27;41.17;;;17.77;;
41921;SDS011;27609;51.002;5.354;2023-12-14T03:53:52;37.45;;;15.73;;
41921;SDS011;27609;51.002;5.354;2023-12-14T03:56:18;36.30;;;15.10;;
41921;SDS011;27609;51.002;5.354;2023-12-14T03:58:44;35.25;;;15.32;;
41921;SDS011;27609;51.002;5.354;2023-12-14T04:01:16;34.13;;;15.38;;
41921;SDS011;27609;51.002;5.354;2023-12-14T04:03:42;27.45;;;13.38;;
41921;SDS011;27609;51.002;5.354;2023-12-14T04:06:08;29.17;;;12.55;;
41921;SDS011;27609;51.002;5.354;2023-12-14T04:08:34;36.25;;;14.18;;
41921;SDS011;27609;51.002;5.354;2023-12-14T04:11:00;30.95;;;13.45;;
41921;SDS011;27609;51.002;5.354;2023-12-14T04:13:26;35.42;;;15.02;;
41921;SDS011;27609;51.002;5.354;2023-12-14T04:15:52;35.15;;;15.60;;
41921;SDS011;27609;51.002;5.354;2023-12-14T04:18:18;29.98;;;13.57;;
41921;SDS011;27609;51.002;5.354;2023-12-14T04:20:43;30.60;;;13.10;;
41921;SDS011;27609;51.002;5.354;2023-12-14T04:23:09;26.30;;;11.93;;
41921;SDS011;27609;51.002;5.354;2023-12-14T04:25:35;23.77;;;11.85;;
41921;SDS011;27609;51.002;5.354;2023-12-14T04:28:00;24.40;;;10.75;;
41921;SDS011;27609;51.002;5.354;2023-12-14T04:30:26;25.27;;;11.45;;
41921;SDS011;27609;51.002;5.354;2023-12-14T04:32:52;20.30;;;10.10;;
41921;SDS011;27609;51.002;5.354;2023-12-14T04:35:18;20.83;;;9.93;;
41921;SDS011;27609;51.002;5.354;2023-12-14T04:37:44;20.58;;;10.63;;
41921;SDS011;27609;51.002;5.354;2023-12-14T04:40:10;25.65;;;12.13;;
41921;SDS011;27609;51.002;5.354;2023-12-14T04:42:36;21.48;;;10.95;;
41921;SDS011;27609;51.002;5.354;2023-12-14T04:45:01;19.23;;;9.63;;
41921;SDS011;27609;51.002;5.354;2023-12-14T04:47:27;22.92;;;11.48;;
41921;SDS011;27609;51.002;5.354;2023-12-14T04:49:53;21.80;;;11.45;;
41921;SDS011;27609;51.002;5.354;2023-12-14T04:52:19;22.73;;;9.85;;
41921;SDS011;27609;51.002;5.354;2023-12-14T04:54:45;23.05;;;10.43;;
41921;SDS011;27609;51.002;5.354;2023-12-14T04:57:10;22.88;;;10.63;;
41921;SDS011;27609;51.002;5.354;2023-12-14T04:59:36;22.30;;;10.60;;
41921;SDS011;27609;51.002;5.354;2023-12-14T05:02:02;23.30;;;10.68;;
41921;SDS011;27609;51.002;5.354;2023-12-14T05:04:27;18.75;;;10.25;;
41921;SDS011;27609;51.002;5.354;2023-12-14T05:06:53;23.00;;;9.82;;
41921;SDS011;27609;51.002;5.354;2023-12-14T05:09:19;19.20;;;9.88;;
41921;SDS011;27609;51.002;5.354;2023-12-14T05:11:45;19.88;;;9.95;;
41921;SDS011;27609;51.002;5.354;2023-12-14T05:14:10;24.23;;;10.60;;
41921;SDS011;27609;51.002;5.354;2023-12-14T05:16:36;25.73;;;11.10;;
41921;SDS011;27609;51.002;5.354;2023-12-14T05:19:02;24.88;;;12.27;;
41921;SDS011;27609;51.002;5.354;2023-12-14T05:21:28;23.77;;;11.30;;
41921;SDS011;27609;51.002;5.354;2023-12-14T05:23:53;23.20;;;12.27;;
41921;SDS011;27609;51.002;5.354;2023-12-14T05:26:19;34.45;;;15.23;;
41921;SDS011;27609;51.002;5.354;2023-12-14T05:28:45;28.30;;;13.77;;
41921;SDS011;27609;51.002;5.354;2023-12-14T05:31:11;30.67;;;13.50;;
41921;SDS011;27609;51.002;5.354;2023-12-14T05:33:37;29.63;;;13.88;;
41921;SDS011;27609;51.002;5.354;2023-12-14T05:36:03;28.55;;;13.68;;
41921;SDS011;27609;51.002;5.354;2023-12-14T05:38:33;29.98;;;13.88;;
41921;SDS011;27609;51.002;5.354;2023-12-14T05:40:59;25.15;;;12.95;;
41921;SDS011;27609;51.002;5.354;2023-12-14T05:43:25;29.17;;;13.93;;
41921;SDS011;27609;51.002;5.354;2023-12-14T05:45:51;26.48;;;12.10;;
41921;SDS011;27609;51.002;5.354;2023-12-14T05:48:16;26.65;;;12.98;;
41921;SDS011;27609;51.002;5.354;2023-12-14T05:50:42;33.70;;;16.55;;
41921;SDS011;27609;51.002;5.354;2023-12-14T05:53:08;30.77;;;14.20;;
41921;SDS011;27609;51.002;5.354;2023-12-14T05:55:34;30.88;;;15.45;;
41921;SDS011;27609;51.002;5.354;2023-12-14T05:58:00;26.48;;;13.10;;
41921;SDS011;27609;51.002;5.354;2023-12-14T06:00:25;26.55;;;14.27;;
41921;SDS011;27609;51.002;5.354;2023-12-14T06:02:51;33.25;;;16.15;;
41921;SDS011;27609;51.002;5.354;2023-12-14T06:05:17;29.83;;;14.07;;
41921;SDS011;27609;51.002;5.354;2023-12-14T06:07:42;28.10;;;14.30;;
41921;SDS011;27609;51.002;5.354;2023-12-14T06:10:09;29.65;;;13.73;;
41921;SDS011;27609;51.002;5.354;2023-12-14T06:12:35;32.25;;;15.35;;
41921;SDS011;27609;51.002;5.354;2023-12-14T06:15:01;24.67;;;13.48;;
41921;SDS011;27609;51.002;5.354;2023-12-14T06:17:27;30.35;;;14.85;;
41921;SDS011;27609;51.002;5.354;2023-12-14T06:19:53;32.20;;;14.90;;
41921;SDS011;27609;51.002;5.354;2023-12-14T06:22:18;28.08;;;13.77;;
41921;SDS011;27609;51.002;5.354;2023-12-14T06:24:44;26.23;;;14.43;;
41921;SDS011;27609;51.002;5.354;2023-12-14T06:27:10;29.83;;;13.95;;
41921;SDS011;27609;51.002;5.354;2023-12-14T06:29:36;28.30;;;14.00;;
41921;SDS011;27609;51.002;5.354;2023-12-14T06:32:01;23.42;;;13.15;;
41921;SDS011;27609;51.002;5.354;2023-12-14T06:34:27;22.65;;;13.38;;
41921;SDS011;27609;51.002;5.354;2023-12-14T06:36:53;26.85;;;14.88;;
41921;SDS011;27609;51.002;5.354;2023-12-14T06:39:19;26.55;;;14.48;;
41921;SDS011;27609;51.002;5.354;2023-12-14T06:41:44;28.77;;;14.63;;
41921;SDS011;27609;51.002;5.354;2023-12-14T06:44:10;29.92;;;14.38;;
41921;SDS011;27609;51.002;5.354;2023-12-14T06:46:36;27.50;;;14.38;;
41921;SDS011;27609;51.002;5.354;2023-12-14T06:49:01;25.75;;;14.00;;
41921;SDS011;27609;51.002;5.354;2023-12-14T06:51:27;26.60;;;14.02;;
41921;SDS011;27609;51.002;5.354;2023-12-14T06:53:53;31.92;;;15.15;;
41921;SDS011;27609;51.002;5.354;2023-12-14T06:56:18;27.02;;;13.73;;
41921;SDS011;27609;51.002;5.354;2023-12-14T06:58:44;26.80;;;13.85;;
41921;SDS011;27609;51.002;5.354;2023-12-14T07:01:13;32.63;;;16.80;;
41921;SDS011;27609;51.002;5.354;2023-12-14T07:03:40;30.23;;;14.23;;
41921;SDS011;27609;51.002;5.354;2023-12-14T07:06:11;26.05;;;14.32;;
41921;SDS011;27609;51.002;5.354;2023-12-14T07:08:37;25.23;;;13.65;;
41921;SDS011;27609;51.002;5.354;2023-12-14T07:11:04;23.17;;;13.40;;
41921;SDS011;27609;51.002;5.354;2023-12-14T07:13:30;22.77;;;12.35;;
41921;SDS011;27609;51.002;5.354;2023-12-14T07:15:56;23.92;;;13.18;;
41921;SDS011;27609;51.002;5.354;2023-12-14T07:18:22;24.75;;;13.20;;
41921;SDS011;27609;51.002;5.354;2023-12-14T07:20:47;26.30;;;13.98;;
41921;SDS011;27609;51.002;5.354;2023-12-14T07:23:13;27.25;;;12.88;;
41921;SDS011;27609;51.002;5.354;2023-12-14T07:25:39;23.55;;;13.20;;
41921;SDS011;27609;51.002;5.354;2023-12-14T07:28:04;25.90;;;14.05;;
41921;SDS011;27609;51.002;5.354;2023-12-14T07:30:30;25.05;;;12.75;;
41921;SDS011;27609;51.002;5.354;2023-12-14T07:32:56;26.40;;;13.48;;
41921;SDS011;27609;51.002;5.354;2023-12-14T07:35:21;25.88;;;13.48;;
41921;SDS011;27609;51.002;5.354;2023-12-14T07:37:48;25.85;;;13.80;;
41921;SDS011;27609;51.002;5.354;2023-12-14T07:40:14;26.85;;;14.20;;
41921;SDS011;27609;51.002;5.354;2023-12-14T07:42:39;25.60;;;13.85;;
41921;SDS011;27609;51.002;5.354;2023-12-14T07:45:05;30.85;;;14.63;;
41921;SDS011;27609;51.002;5.354;2023-12-14T07:47:33;26.85;;;13.80;;
41921;SDS011;27609;51.002;5.354;2023-12-14T07:49:59;26.83;;;13.48;;
41921;SDS011;27609;51.002;5.354;2023-12-14T07:52:24;27.40;;;14.98;;
41921;SDS011;27609;51.002;5.354;2023-12-14T07:54:50;24.80;;;13.98;;
41921;SDS011;27609;51.002;5.354;2023-12-14T07:57:16;27.25;;;13.70;;
41921;SDS011;27609;51.002;5.354;2023-12-14T07:59:42;27.42;;;14.60;;
41921;SDS011;27609;51.002;5.354;2023-12-14T08:02:08;23.73;;;13.20;;
41921;SDS011;27609;51.002;5.354;2023-12-14T08:04:33;27.88;;;14.85;;
41921;SDS011;27609;51.002;5.354;2023-12-14T08:06:59;27.48;;;15.02;;
41921;SDS011;27609;51.002;5.354;2023-12-14T08:09:25;26.08;;;14.00;;
41921;SDS011;27609;51.002;5.354;2023-12-14T08:11:50;26.50;;;14.68;;
41921;SDS011;27609;51.002;5.354;2023-12-14T08:14:17;31.98;;;14.52;;
41921;SDS011;27609;51.002;5.354;2023-12-14T08:16:43;27.50;;;15.00;;
41921;SDS011;27609;51.002;5.354;2023-12-14T08:19:08;27.20;;;13.95;;
41921;SDS011;27609;51.002;5.354;2023-12-14T08:21:34;30.88;;;14.88;;
41921;SDS011;27609;51.002;5.354;2023-12-14T08:24:00;27.98;;;13.73;;
41921;SDS011;27609;51.002;5.354;2023-12-14T08:26:25;27.38;;;14.43;;
41921;SDS011;27609;51.002;5.354;2023-12-14T08:28:51;31.05;;;13.75;;
41921;SDS011;27609;51.002;5.354;2023-12-14T08:31:18;26.60;;;13.50;;
41921;SDS011;27609;51.002;5.354;2023-12-14T08:33:44;28.75;;;14.85;;
41921;SDS011;27609;51.002;5.354;2023-12-14T08:36:09;28.73;;;14.50;;
41921;SDS011;27609;51.002;5.354;2023-12-14T08:38:35;27.25;;;15.18;;
41921;SDS011;27609;51.002;5.354;2023-12-14T08:41:01;29.50;;;15.05;;
41921;SDS011;27609;51.002;5.354;2023-12-14T08:43:27;29.67;;;16.33;;
41921;SDS011;27609;51.002;5.354;2023-12-14T08:45:52;35.95;;;16.17;;
41921;SDS011;27609;51.002;5.354;2023-12-14T08:48:18;31.73;;;14.80;;
41921;SDS011;27609;51.002;5.354;2023-12-14T08:50:44;28.73;;;15.65;;
41921;SDS011;27609;51.002;5.354;2023-12-14T08:53:10;29.00;;;15.40;;
41921;SDS011;27609;51.002;5.354;2023-12-14T08:55:36;27.88;;;14.55;;
41921;SDS011;27609;51.002;5.354;2023-12-14T08:58:02;30.50;;;14.65;;
41921;SDS011;27609;51.002;5.354;2023-12-14T09:00:28;34.53;;;15.75;;
41921;SDS011;27609;51.002;5.354;2023-12-14T09:02:53;30.08;;;16.48;;
41921;SDS011;27609;51.002;5.354;2023-12-14T09:05:19;30.95;;;16.10;;
41921;SDS011;27609;51.002;5.354;2023-12-14T09:07:46;28.70;;;15.05;;
41921;SDS011;27609;51.002;5.354;2023-12-14T09:10:12;29.08;;;15.07;;
41921;SDS011;27609;51.002;5.354;2023-12-14T09:12:38;28.08;;;14.55;;
41921;SDS011;27609;51.002;5.354;2023-12-14T09:15:04;27.70;;;13.70;;
41921;SDS011;27609;51.002;5.354;2023-12-14T09:17:30;29.88;;;14.77;;
41921;SDS011;27609;51.002;5.354;2023-12-14T09:20:01;25.45;;;14.55;;
41921;SDS011;27609;51.002;5.354;2023-12-14T09:22:30;30.80;;;14.07;;
41921;SDS011;27609;51.002;5.354;2023-12-14T09:24:56;23.20;;;12.63;;
41921;SDS011;27609;51.002;5.354;2023-12-14T09:27:22;26.52;;;13.00;;
41921;SDS011;27609;51.002;5.354;2023-12-14T09:29:48;22.45;;;11.57;;
41921;SDS011;27609;51.002;5.354;2023-12-14T09:32:14;21.08;;;11.48;;
41921;SDS011;27609;51.002;5.354;2023-12-14T09:34:40;24.92;;;13.00;;
41921;SDS011;27609;51.002;5.354;2023-12-14T09:37:05;24.00;;;12.05;;
41921;SDS011;27609;51.002;5.354;2023-12-14T09:39:31;23.67;;;12.27;;
41921;SDS011;27609;51.002;5.354;2023-12-14T09:42:03;22.00;;;11.40;;
41921;SDS011;27609;51.002;5.354;2023-12-14T09:44:31;18.88;;;11.65;;
41921;SDS011;27609;51.002;5.354;2023-12-14T09:47:00;20.55;;;12.30;;
41921;SDS011;27609;51.002;5.354;2023-12-14T09:49:27;24.20;;;12.10;;
41921;SDS011;27609;51.002;5.354;2023-12-14T09:51:58;21.05;;;10.50;;
41921;SDS011;27609;51.002;5.354;2023-12-14T09:54:24;17.52;;;11.02;;
41921;SDS011;27609;51.002;5.354;2023-12-14T09:56:51;25.23;;;10.50;;
41921;SDS011;27609;51.002;5.354;2023-12-14T09:59:20;22.98;;;11.38;;
41921;SDS011;27609;51.002;5.354;2023-12-14T10:01:46;19.05;;;9.77;;
41921;SDS011;27609;51.002;5.354;2023-12-14T10:04:13;20.25;;;10.23;;
41921;SDS011;27609;51.002;5.354;2023-12-14T10:06:41;17.38;;;9.68;;
41921;SDS011;27609;51.002;5.354;2023-12-14T10:09:08;25.42;;;10.85;;
41921;SDS011;27609;51.002;5.354;2023-12-14T10:11:38;22.48;;;9.38;;
41921;SDS011;27609;51.002;5.354;2023-12-14T10:14:20;21.77;;;10.75;;
41921;SDS011;27609;51.002;5.354;2023-12-14T10:16:47;19.75;;;9.88;;
41921;SDS011;27609;51.002;5.354;2023-12-14T10:19:14;15.80;;;9.45;;
41921;SDS011;27609;51.002;5.354;2023-12-14T10:21:41;21.23;;;9.90;;
41921;SDS011;27609;51.002;5.354;2023-12-14T10:24:07;14.63;;;9.57;;
41921;SDS011;27609;51.002;5.354;2023-12-14T10:26:33;17.60;;;9.63;;
41921;SDS011;27609;51.002;5.354;2023-12-14T10:29:00;15.43;;;9.23;;
41921;SDS011;27609;51.002;5.354;2023-12-14T10:31:27;16.67;;;8.63;;
41921;SDS011;27609;51.002;5.354;2023-12-14T10:33:53;14.85;;;9.90;;
41921;SDS011;27609;51.002;5.354;2023-12-14T10:36:19;14.00;;;8.38;;
41921;SDS011;27609;51.002;5.354;2023-12-14T10:38:50;19.20;;;8.25;;
41921;SDS011;27609;51.002;5.354;2023-12-14T10:41:18;13.55;;;7.75;;
41921;SDS011;27609;51.002;5.354;2023-12-14T10:43:45;20.15;;;9.45;;
41921;SDS011;27609;51.002;5.354;2023-12-14T10:46:12;17.90;;;8.25;;
41921;SDS011;27609;51.002;5.354;2023-12-14T10:48:39;16.83;;;8.00;;
41921;SDS011;27609;51.002;5.354;2023-12-14T10:51:09;16.95;;;7.80;;
41921;SDS011;27609;51.002;5.354;2023-12-14T10:53:39;13.85;;;8.23;;
41921;SDS011;27609;51.002;5.354;2023-12-14T10:56:10;17.33;;;8.43;;
41921;SDS011;27609;51.002;5.354;2023-12-14T11:01:13;13.52;;;7.85;;
41921;SDS011;27609;51.002;5.354;2023-12-14T11:03:43;14.40;;;7.53;;
41921;SDS011;27609;51.002;5.354;2023-12-14T11:08:56;11.70;;;7.10;;
41921;SDS011;27609;51.002;5.354;2023-12-14T11:11:28;13.43;;;6.85;;
41921;SDS011;27609;51.002;5.354;2023-12-14T11:13:55;10.60;;;7.25;;
41921;SDS011;27609;51.002;5.354;2023-12-14T11:16:21;12.10;;;7.80;;
41921;SDS011;27609;51.002;5.354;2023-12-14T11:18:48;10.85;;;7.13;;
41921;SDS011;27609;51.002;5.354;2023-12-14T11:21:34;14.85;;;7.13;;
41921;SDS011;27609;51.002;5.354;2023-12-14T11:23:59;11.35;;;5.72;;
41921;SDS011;27609;51.002;5.354;2023-12-14T11:26:26;11.27;;;6.28;;
41921;SDS011;27609;51.002;5.354;2023-12-14T11:28:53;8.45;;;5.90;;
41921;SDS011;27609;51.002;5.354;2023-12-14T11:31:19;11.02;;;6.55;;
41921;SDS011;27609;51.002;5.354;2023-12-14T11:33:45;11.40;;;6.00;;
41921;SDS011;27609;51.002;5.354;2023-12-14T11:36:13;13.77;;;7.65;;
41921;SDS011;27609;51.002;5.354;2023-12-14T11:38:38;10.02;;;7.05;;
41921;SDS011;27609;51.002;5.354;2023-12-14T11:41:04;15.13;;;6.07;;
41921;SDS011;27609;51.002;5.354;2023-12-14T11:43:38;9.65;;;5.63;;
41921;SDS011;27609;51.002;5.354;2023-12-14T11:46:05;12.32;;;7.00;;
41921;SDS011;27609;51.002;5.354;2023-12-14T11:48:31;17.70;;;7.57;;
41921;SDS011;27609;51.002;5.354;2023-12-14T11:50:56;12.85;;;6.68;;
41921;SDS011;27609;51.002;5.354;2023-12-14T11:53:22;10.23;;;6.40;;
41921;SDS011;27609;51.002;5.354;2023-12-14T11:55:48;8.93;;;6.35;;
41921;SDS011;27609;51.002;5.354;2023-12-14T11:58:15;10.52;;;6.40;;
41921;SDS011;27609;51.002;5.354;2023-12-14T12:00:41;10.00;;;5.82;;
41921;SDS011;27609;51.002;5.354;2023-12-14T12:03:16;8.80;;;6.10;;
41921;SDS011;27609;51.002;5.354;2023-12-14T12:05:51;8.15;;;5.43;;
41921;SDS011;27609;51.002;5.354;2023-12-14T12:08:20;9.65;;;5.75;;
41921;SDS011;27609;51.002;5.354;2023-12-14T12:10:46;9.43;;;6.68;;
41921;SDS011;27609;51.002;5.354;2023-12-14T12:13:14;8.55;;;5.55;;
41921;SDS011;27609;51.002;5.354;2023-12-14T12:15:41;9.68;;;6.03;;
41921;SDS011;27609;51.002;5.354;2023-12-14T12:18:08;10.38;;;6.30;;
41921;SDS011;27609;51.002;5.354;2023-12-14T12:20:34;10.15;;;6.50;;
41921;SDS011;27609;51.002;5.354;2023-12-14T12:23:01;9.68;;;5.93;;
41921;SDS011;27609;51.002;5.354;2023-12-14T12:25:32;7.45;;;5.28;;
41921;SDS011;27609;51.002;5.354;2023-12-14T12:27:59;6.88;;;5.82;;
41921;SDS011;27609;51.002;5.354;2023-12-14T12:30:27;13.43;;;6.07;;
41921;SDS011;27609;51.002;5.354;2023-12-14T12:32:53;7.57;;;5.72;;
41921;SDS011;27609;51.002;5.354;2023-12-14T12:35:20;10.38;;;6.45;;
41921;SDS011;27609;51.002;5.354;2023-12-14T12:37:48;9.20;;;5.82;;
41921;SDS011;27609;51.002;5.354;2023-12-14T12:40:19;7.72;;;5.35;;
41921;SDS011;27609;51.002;5.354;2023-12-14T12:42:48;9.77;;;5.75;;
41921;SDS011;27609;51.002;5.354;2023-12-14T12:45:15;8.63;;;5.65;;
41921;SDS011;27609;51.002;5.354;2023-12-14T12:47:42;10.40;;;6.25;;
41921;SDS011;27609;51.002;5.354;2023-12-14T12:50:10;8.20;;;6.15;;
41921;SDS011;27609;51.002;5.354;2023-12-14T12:52:36;12.20;;;6.65;;
41921;SDS011;27609;51.002;5.354;2023-12-14T12:55:03;12.10;;;7.05;;
41921;SDS011;27609;51.002;5.354;2023-12-14T12:57:31;11.60;;;6.97;;
41921;SDS011;27609;51.002;5.354;2023-12-14T12:59:56;10.70;;;6.13;;
41921;SDS011;27609;51.002;5.354;2023-12-14T13:02:22;12.95;;;6.88;;
41921;SDS011;27609;51.002;5.354;2023-12-14T13:04:48;10.32;;;6.20;;
41921;SDS011;27609;51.002;5.354;2023-12-14T13:07:15;13.00;;;7.25;;
41921;SDS011;27609;51.002;5.354;2023-12-14T13:09:41;9.45;;;6.97;;
41921;SDS011;27609;51.002;5.354;2023-12-14T13:12:07;12.88;;;8.32;;
41921;SDS011;27609;51.002;5.354;2023-12-14T13:14:33;10.52;;;7.00;;
41921;SDS011;27609;51.002;5.354;2023-12-14T13:16:58;12.75;;;7.93;;
41921;SDS011;27609;51.002;5.354;2023-12-14T13:19:24;14.13;;;8.50;;
41921;SDS011;27609;51.002;5.354;2023-12-14T13:21:51;11.95;;;7.90;;
41921;SDS011;27609;51.002;5.354;2023-12-14T13:24:17;12.18;;;7.65;;
41921;SDS011;27609;51.002;5.354;2023-12-14T13:26:43;12.48;;;7.80;;
41921;SDS011;27609;51.002;5.354;2023-12-14T13:29:08;13.52;;;8.50;;
41921;SDS011;27609;51.002;5.354;2023-12-14T13:31:35;15.93;;;9.43;;
41921;SDS011;27609;51.002;5.354;2023-12-14T13:34:01;14.82;;;9.45;;
41921;SDS011;27609;51.002;5.354;2023-12-14T13:36:26;15.98;;;10.02;;
41921;SDS011;27609;51.002;5.354;2023-12-14T13:38:52;16.17;;;10.75;;
41921;SDS011;27609;51.002;5.354;2023-12-14T13:41:19;17.98;;;11.27;;
41921;SDS011;27609;51.002;5.354;2023-12-14T13:43:44;16.10;;;10.27;;
41921;SDS011;27609;51.002;5.354;2023-12-14T13:46:11;19.17;;;10.50;;
41921;SDS011;27609;51.002;5.354;2023-12-14T13:48:37;19.50;;;11.45;;
41921;SDS011;27609;51.002;5.354;2023-12-14T13:51:02;14.68;;;10.55;;
41921;SDS011;27609;51.002;5.354;2023-12-14T13:53:28;18.25;;;11.15;;
41921;SDS011;27609;51.002;5.354;2023-12-14T13:55:54;18.75;;;11.18;;
41921;SDS011;27609;51.002;5.354;2023-12-14T13:58:19;19.08;;;10.88;;
41921;SDS011;27609;51.002;5.354;2023-12-14T14:00:45;16.70;;;10.02;;
41921;SDS011;27609;51.002;5.354;2023-12-14T14:03:11;17.20;;;10.13;;
41921;SDS011;27609;51.002;5.354;2023-12-14T14:05:37;18.15;;;9.95;;
41921;SDS011;27609;51.002;5.354;2023-12-14T14:08:03;17.98;;;10.45;;
41921;SDS011;27609;51.002;5.354;2023-12-14T14:10:28;16.17;;;9.85;;
41921;SDS011;27609;51.002;5.354;2023-12-14T14:12:54;20.58;;;11.02;;
41921;SDS011;27609;51.002;5.354;2023-12-14T14:15:21;16.65;;;9.88;;
41921;SDS011;27609;51.002;5.354;2023-12-14T14:17:46;17.52;;;10.52;;
41921;SDS011;27609;51.002;5.354;2023-12-14T14:20:16;15.50;;;9.07;;
41921;SDS011;27609;51.002;5.354;2023-12-14T14:22:42;16.15;;;9.73;;
41921;SDS011;27609;51.002;5.354;2023-12-14T14:25:09;13.93;;;8.98;;